Time;durP1;ratioP1;P1;durP2;ratioP2;P2;SDS_P1;SDS_P2;PMS_P1;PMS_P2;Temp;Humidity;BMP_temperature;BMP_pressure;BME280_temperature;BME280_humidity;BME280_pressure;Samples;Min_cycle;Max_cycle;Signal;HPM_P1;HPM_P2
2021/08/29 00:01:03;;;;;;;6.57;5.60;;;;;;;10.34;90.40;95752.34;4995740;28;20183;-81
2021/08/29 00:03:29;;;;;;;8.80;5.40;;;;;;;10.39;90.33;95747.53;5011875;28;20202;-80
2021/08/29 00:05:54;;;;;;;5.90;5.30;;;;;;;10.44;90.24;95750.53;4996341;28;20670;-80
2021/08/29 00:08:19;;;;;;;5.90;5.03;;;;;;;10.47;90.17;95745.03;5012796;28;20191;-78
2021/08/29 00:10:45;;;;;;;5.10;4.60;;;;;;;10.55;90.45;95740.94;4997645;28;20187;-78
2021/08/29 00:13:10;;;;;;;5.37;4.80;;;;;;;10.60;90.15;95744.75;5012379;28;20197;-79
2021/08/29 00:15:36;;;;;;;7.33;4.53;;;;;;;10.66;90.16;95740.75;5013702;28;20175;-78
2021/08/29 00:18:01;;;;;;;5.73;4.87;;;;;;;10.70;89.94;95739.50;4997208;28;20211;-79
2021/08/29 00:20:27;;;;;;;6.90;4.80;;;;;;;10.75;90.16;95745.06;4997582;28;20205;-78
2021/08/29 00:22:52;;;;;;;5.47;4.73;;;;;;;10.80;89.99;95735.09;5013345;28;20183;-80
2021/08/29 00:25:17;;;;;;;7.03;5.40;;;;;;;10.84;89.81;95736.41;5013079;28;20257;-77
2021/08/29 00:27:43;;;;;;;5.40;4.90;;;;;;;10.86;89.96;95739.69;5031150;28;20234;-78
2021/08/29 00:30:08;;;;;;;5.47;4.97;;;;;;;10.88;90.10;95742.97;4997731;28;20175;-79
2021/08/29 00:32:34;;;;;;;6.30;5.10;;;;;;;10.89;90.10;95739.41;5030760;28;20198;-80
2021/08/29 00:34:59;;;;;;;7.07;5.37;;;;;;;10.88;90.54;95737.78;5015271;28;20175;-79
2021/08/29 00:37:24;;;;;;;6.10;5.03;;;;;;;10.91;90.20;95726.28;5001820;28;20175;-79
2021/08/29 00:39:50;;;;;;;5.57;5.07;;;;;;;10.90;90.28;95716.84;5029608;28;20282;-80
2021/08/29 00:42:15;;;;;;;5.37;4.87;;;;;;;10.90;90.42;95730.66;5017632;28;20183;-79
2021/08/29 00:44:40;;;;;;;7.77;5.17;;;;;;;10.89;90.58;95720.41;5014773;28;20198;-79
2021/08/29 00:47:06;;;;;;;6.47;5.10;;;;;;;10.87;90.60;95720.56;4997878;28;20180;-80
2021/08/29 00:49:35;;;;;;;5.63;5.10;;;;;;;10.87;91.02;95724.94;4998267;28;20207;-80
2021/08/29 00:52:01;;;;;;;5.60;5.07;;;;;;;10.87;91.04;95724.94;4996585;28;20713;-80
2021/08/29 00:54:29;;;;;;;6.50;5.03;;;;;;;10.88;90.87;95727.38;4997735;28;20278;-80
2021/08/29 00:56:54;;;;;;;7.20;5.47;;;;;;;10.89;91.07;95733.41;4997783;28;20176;-80
2021/08/29 00:59:20;;;;;;;7.90;5.97;;;;;;;10.86;91.35;95707.69;5014783;28;20210;-80
2021/08/29 01:01:51;;;;;;;6.83;5.40;;;;;;;10.86;91.49;95718.91;4997585;28;20176;-78
2021/08/29 01:04:21;;;;;;;6.50;4.77;;;;;;;10.89;91.03;95704.81;4997737;28;20184;-79
2021/08/29 01:06:53;;;;;;;5.63;5.03;;;;;;;10.87;91.66;95704.97;4996896;28;20232;-80
2021/08/29 01:09:20;;;;;;;7.83;5.97;;;;;;;10.88;91.57;95700.59;5013882;28;20200;-79
2021/08/29 01:11:47;;;;;;;6.80;5.23;;;;;;;10.88;91.72;95701.41;4998599;28;20179;-79
2021/08/29 01:14:15;;;;;;;5.97;5.37;;;;;;;10.87;91.81;95702.38;4997158;28;20184;-80
2021/08/29 01:16:43;;;;;;;6.30;5.67;;;;;;;10.89;92.00;95699.63;4981151;28;20195;-80
2021/08/29 01:19:13;;;;;;;7.50;5.37;;;;;;;10.86;91.88;95700.72;4997129;28;20272;-77
2021/08/29 01:21:38;;;;;;;7.03;5.60;;;;;;;10.87;91.75;95702.38;4996931;28;20252;-78
2021/08/29 01:24:07;;;;;;;5.53;4.97;;;;;;;10.81;92.00;95697.75;4996975;28;20184;-79
2021/08/29 01:26:35;;;;;;;5.23;4.73;;;;;;;10.76;91.97;95692.97;4996471;28;20265;-80
2021/08/29 01:29:02;;;;;;;7.90;4.80;;;;;;;10.76;91.90;95695.56;5014380;28;20203;-80
2021/08/29 01:31:29;;;;;;;5.80;5.00;;;;;;;10.75;91.64;95696.53;4998228;28;20562;-80
2021/08/29 01:33:58;;;;;;;6.07;5.47;;;;;;;10.71;92.21;95699.59;4998121;28;20187;-79
2021/08/29 01:36:24;;;;;;;5.80;5.23;;;;;;;10.66;92.42;95687.00;4996536;28;20195;-78
2021/08/29 01:38:49;;;;;;;7.07;5.20;;;;;;;10.70;92.47;95692.75;4995785;28;20223;-77
2021/08/29 01:41:17;;;;;;;7.07;5.53;;;;;;;10.69;92.52;95691.09;4995953;28;20176;-78
2021/08/29 01:43:42;;;;;;;6.80;5.47;;;;;;;10.67;92.60;95685.22;4996276;28;20184;-79
2021/08/29 01:46:08;;;;;;;7.23;6.10;;;;;;;10.73;92.39;95685.47;5010770;28;20307;-78
2021/08/29 01:48:35;;;;;;;7.50;6.10;;;;;;;10.69;92.09;95678.97;4996147;28;20192;-79
2021/08/29 01:51:02;;;;;;;7.37;6.20;;;;;;;10.67;92.38;95674.84;4995728;28;20211;-79
2021/08/29 01:53:27;;;;;;;7.17;6.47;;;;;;;10.67;92.65;95680.03;4995126;28;20183;-80
2021/08/29 01:55:52;;;;;;;7.77;6.23;;;;;;;10.66;92.82;95676.63;4979939;28;20267;-80
2021/08/29 01:58:18;;;;;;;8.00;6.80;;;;;;;10.71;92.47;95678.81;4995762;28;20211;-80
2021/08/29 02:00:49;;;;;;;10.00;7.33;;;;;;;10.67;92.57;95672.25;4996032;28;20173;-78
2021/08/29 02:03:15;;;;;;;10.07;6.30;;;;;;;10.66;92.62;95686.19;4996417;28;20172;-79
2021/08/29 02:05:40;;;;;;;8.23;6.70;;;;;;;10.66;93.13;95676.63;4996403;28;20200;-80
2021/08/29 02:08:07;;;;;;;8.50;6.63;;;;;;;10.64;93.14;95670.75;4996740;28;20204;-80
2021/08/29 02:10:33;;;;;;;7.27;6.10;;;;;;;10.67;92.90;95667.88;4996851;28;20195;-80
2021/08/29 02:13:05;;;;;;;7.47;6.33;;;;;;;10.63;92.98;95660.53;5012423;28;20180;-78
2021/08/29 02:15:35;;;;;;;7.27;6.13;;;;;;;10.67;92.84;95664.47;4996911;28;20187;-78
2021/08/29 02:18:03;;;;;;;10.27;6.80;;;;;;;10.66;93.09;95660.22;4980075;28;20207;-78
2021/08/29 02:20:29;;;;;;;8.10;6.33;;;;;;;10.66;92.92;95652.44;4996214;28;20180;-79
2021/08/29 02:22:55;;;;;;;7.30;6.53;;;;;;;10.64;93.15;95655.19;4996953;28;20199;-80
2021/08/29 02:25:21;;;;;;;8.10;7.00;;;;;;;10.61;93.39;95649.47;4996276;28;20200;-79
2021/08/29 02:27:46;;;;;;;7.90;6.67;;;;;;;10.56;93.64;95649.91;4997248;28;20267;-80
2021/08/29 02:30:12;;;;;;;7.37;6.63;;;;;;;10.58;93.70;95644.56;4999170;28;20250;-79
2021/08/29 02:32:39;;;;;;;8.23;6.20;;;;;;;10.59;93.49;95653.97;5013857;28;20180;-78
2021/08/29 02:35:05;;;;;;;6.93;6.17;;;;;;;10.63;93.61;95655.34;4998109;28;20172;-79
2021/08/29 02:37:31;;;;;;;7.33;6.33;;;;;;;10.50;93.80;95645.28;4996552;28;20184;-80
2021/08/29 02:39:58;;;;;;;6.90;6.20;;;;;;;10.50;94.16;95640.91;4997286;28;20160;-80
2021/08/29 02:42:26;;;;;;;8.57;6.07;;;;;;;10.57;93.68;95640.31;5013292;28;20176;-79
2021/08/29 02:44:52;;;;;;;5.47;4.87;;;;;;;10.65;93.04;95648.22;4996480;28;20176;-80
2021/08/29 02:47:17;;;;;;;7.27;5.63;;;;;;;10.64;93.00;95647.41;4997924;28;20187;-79
2021/08/29 02:49:43;;;;;;;6.37;5.23;;;;;;;10.61;93.18;95642.50;5001653;28;20164;-77
2021/08/29 02:52:08;;;;;;;6.77;5.63;;;;;;;10.65;93.16;95649.03;5001225;28;20192;-77
2021/08/29 02:54:35;;;;;;;6.17;4.90;;;;;;;10.69;92.68;95640.00;5001224;28;20167;-76
2021/08/29 02:57:00;;;;;;;5.80;4.97;;;;;;;10.71;92.54;95640.66;5001729;28;20184;-77
2021/08/29 02:59:26;;;;;;;5.33;4.77;;;;;;;10.76;92.35;95637.59;4984499;28;20214;-77
2021/08/29 03:01:51;;;;;;;5.43;4.43;;;;;;;10.81;91.66;95644.97;5016152;28;20181;-78
2021/08/29 03:04:17;;;;;;;5.03;4.53;;;;;;;10.81;91.94;95637.19;4999342;28;20179;-78
2021/08/29 03:06:42;;;;;;;5.03;4.53;;;;;;;10.78;91.98;95640.91;5016598;28;20204;-79
2021/08/29 03:09:08;;;;;;;4.93;4.37;;;;;;;10.82;91.97;95639.63;4983649;28;20199;-78
2021/08/29 03:11:33;;;;;;;5.13;4.63;;;;;;;10.84;92.05;95636.88;4999817;28;20256;-77
2021/08/29 03:13:59;;;;;;;5.17;4.53;;;;;;;10.79;92.17;95639.94;4984054;28;20199;-76
2021/08/29 03:16:24;;;;;;;4.97;4.47;;;;;;;10.81;92.45;95645.78;5001828;28;20198;-78
2021/08/29 03:18:49;;;;;;;5.93;5.13;;;;;;;10.82;92.61;95637.03;5018300;28;20184;-78
2021/08/29 03:21:15;;;;;;;7.40;5.03;;;;;;;10.83;92.76;95638.66;4999320;28;20172;-77
2021/08/29 03:23:40;;;;;;;5.30;4.80;;;;;;;10.84;92.91;95632.50;4999750;28;20184;-77
2021/08/29 03:26:05;;;;;;;6.00;4.83;;;;;;;10.85;92.85;95634.13;4999424;28;20302;-78
2021/08/29 03:28:31;;;;;;;5.20;4.70;;;;;;;10.89;92.96;95634.66;4999796;28;20200;-79
2021/08/29 03:30:56;;;;;;;6.33;5.40;;;;;;;10.81;93.17;95635.41;5000213;28;20191;-77
2021/08/29 03:33:23;;;;;;;6.33;5.30;;;;;;;10.84;93.53;95627.31;5015765;28;20211;-77
2021/08/29 03:35:51;;;;;;;6.57;5.30;;;;;;;10.83;93.69;95624.84;5000008;28;20170;-77
2021/08/29 03:38:20;;;;;;;6.43;5.73;;;;;;;10.85;93.97;95623.75;5001282;28;20188;-77
2021/08/29 03:40:47;;;;;;;6.50;5.77;;;;;;;10.86;94.01;95619.34;5000219;28;20184;-77
2021/08/29 03:43:16;;;;;;;6.47;5.50;;;;;;;10.87;94.04;95621.84;4999939;28;20164;-76
2021/08/29 03:45:42;;;;;;;7.73;6.20;;;;;;;10.85;94.42;95608.16;5000266;28;20199;-77
2021/08/29 03:48:09;;;;;;;6.47;5.50;;;;;;;10.85;94.37;95610.75;4984483;28;20287;-77
2021/08/29 03:50:35;;;;;;;6.53;5.87;;;;;;;10.86;94.25;95609.78;4999815;28;20168;-77
2021/08/29 03:53:02;;;;;;;6.70;5.10;;;;;;;10.88;94.39;95607.88;4999584;28;20247;-78
2021/08/29 03:55:28;;;;;;;6.57;5.00;;;;;;;10.84;94.38;95596.13;5016771;28;20167;-77
2021/08/29 03:57:54;;;;;;;5.97;5.37;;;;;;;10.83;94.27;95596.28;5016972;28;20196;-78
2021/08/29 04:00:20;;;;;;;5.13;4.63;;;;;;;10.85;94.33;95591.75;5000751;28;20163;-77
2021/08/29 04:02:46;;;;;;;5.03;4.53;;;;;;;10.86;94.67;95589.00;5016284;28;20191;-77
2021/08/29 04:05:12;;;;;;;6.60;5.43;;;;;;;10.86;94.89;95585.59;5015988;28;20211;-77
2021/08/29 04:07:37;;;;;;;5.33;4.83;;;;;;;10.84;95.05;95583.13;5000289;28;20226;-79
2021/08/29 04:10:03;;;;;;;5.73;5.00;;;;;;;10.88;94.58;95584.50;5000045;28;20168;-78
2021/08/29 04:12:29;;;;;;;5.47;4.90;;;;;;;10.72;95.10;95587.75;5000365;28;20187;-77
2021/08/29 04:14:57;;;;;;;5.90;4.83;;;;;;;10.91;94.29;95581.59;5016919;28;20188;-77
2021/08/29 04:17:24;;;;;;;6.33;5.03;;;;;;;10.85;94.40;95583.97;5016592;28;20183;-79
2021/08/29 04:19:50;;;;;;;6.17;4.90;;;;;;;10.84;94.86;95585.75;5016791;28;20171;-77
2021/08/29 04:22:15;;;;;;;6.37;4.80;;;;;;;10.84;94.41;95574.53;4999631;28;20251;-77
2021/08/29 04:24:41;;;;;;;5.97;4.67;;;;;;;10.86;94.22;95581.22;5000405;28;20176;-78
2021/08/29 04:27:06;;;;;;;5.37;4.87;;;;;;;10.78;94.63;95588.94;5000334;28;20203;-78
2021/08/29 04:29:33;;;;;;;7.07;4.87;;;;;;;10.69;95.33;95593.25;5017290;28;20191;-77
2021/08/29 04:31:58;;;;;;;4.73;4.20;;;;;;;10.70;95.06;95586.28;4999863;28;20191;-77
2021/08/29 04:34:23;;;;;;;4.87;4.37;;;;;;;10.71;94.96;95587.91;5000645;28;20179;-77
2021/08/29 04:36:49;;;;;;;6.63;4.33;;;;;;;10.70;95.46;95589.69;5000361;28;20312;-77
2021/08/29 04:39:14;;;;;;;4.30;3.53;;;;;;;10.69;95.17;95589.81;5000364;28;20199;-77
2021/08/29 04:41:39;;;;;;;4.77;4.27;;;;;;;10.63;95.60;95590.41;5000187;28;20176;-77
2021/08/29 04:44:07;;;;;;;4.40;4.00;;;;;;;10.69;96.00;95595.00;5000493;28;20183;-77
2021/08/29 04:46:32;;;;;;;5.90;4.07;;;;;;;10.63;95.60;95588.63;5000628;28;20223;-77
2021/08/29 04:48:58;;;;;;;3.90;3.50;;;;;;;10.66;96.08;95590.09;5000477;28;20220;-77
2021/08/29 04:51:23;;;;;;;3.37;3.07;;;;;;;10.65;96.24;95596.28;5016030;28;20228;-76
2021/08/29 04:53:48;;;;;;;2.40;2.20;;;;;;;10.70;96.30;95594.06;5000297;28;20176;-77
2021/08/29 04:56:14;;;;;;;1.90;1.73;;;;;;;10.71;96.78;95587.91;5000364;28;20163;-76
2021/08/29 04:58:39;;;;;;;1.23;1.13;;;;;;;10.73;96.84;95584.19;5000196;28;20211;-79
2021/08/29 05:01:04;;;;;;;1.63;1.53;;;;;;;10.76;96.91;95583.88;4998457;28;20194;-79
2021/08/29 05:03:30;;;;;;;1.23;1.13;;;;;;;10.78;96.81;95586.34;4995787;28;20243;-78
2021/08/29 05:05:56;;;;;;;1.00;1.00;;;;;;;10.86;96.73;95585.59;4997718;28;20210;-79
2021/08/29 05:08:22;;;;;;;1.07;1.07;;;;;;;10.87;96.49;95585.47;5016369;28;20208;-77
2021/08/29 05:10:47;;;;;;;1.10;1.07;;;;;;;10.89;96.60;95583.53;5000182;28;20183;-77
2021/08/29 05:13:12;;;;;;;0.77;0.77;;;;;;;10.90;96.83;95590.34;4999879;28;20168;-78
2021/08/29 05:15:38;;;;;;;0.80;0.80;;;;;;;10.89;96.92;95583.53;4999718;28;20175;-77
2021/08/29 05:18:03;;;;;;;20.63;2.50;;;;;;;10.93;97.05;95586.63;5014942;28;20184;-78
2021/08/29 05:20:28;;;;;;;337.40;16.53;;;;;;;10.88;97.83;95584.50;4999451;28;20176;-80
2021/08/29 05:22:53;;;;;;;57.80;4.00;;;;;;;10.94;98.53;95589.06;5001761;28;20159;-79
2021/08/29 05:25:19;;;;;;;95.83;5.70;;;;;;;10.98;98.04;95587.84;5001669;28;20203;-80
2021/08/29 05:27:44;;;;;;;223.13;12.33;;;;;;;10.98;98.04;95593.03;5000227;28;20227;-79
2021/08/29 05:30:10;;;;;;;201.63;10.07;;;;;;;11.04;98.12;95594.19;4985403;28;20184;-77
2021/08/29 05:32:36;;;;;;;167.83;9.50;;;;;;;11.03;98.80;95590.78;5015780;28;20196;-77
2021/08/29 05:35:01;;;;;;;305.57;15.97;;;;;;;11.04;99.73;95602.84;4986084;28;20215;-78
2021/08/29 05:37:26;;;;;;;710.23;36.00;;;;;;;11.01;100.00;95603.13;4980423;28;20180;-80
2021/08/29 05:39:52;;;;;;;161.63;11.90;;;;;;;11.07;99.85;95597.31;5016507;28;20203;-78
2021/08/29 05:42:17;;;;;;;761.07;39.67;;;;;;;11.05;99.86;95604.47;4998927;28;20176;-80
2021/08/29 05:44:42;;;;;;;896.83;47.47;;;;;;;10.98;100.00;95600.81;4983492;28;20191;-80
2021/08/29 05:47:08;;;;;;;474.70;27.03;;;;;;;11.04;100.00;95602.84;4983219;28;20208;-80
2021/08/29 05:49:33;;;;;;;634.50;33.17;;;;;;;11.07;100.00;95602.53;4999320;28;20203;-80
2021/08/29 05:51:59;;;;;;;228.27;15.27;;;;;;;11.20;100.00;95596.94;4998891;28;20215;-79
2021/08/29 05:54:24;;;;;;;1006.30;55.23;;;;;;;11.11;100.00;95597.03;4999739;28;20184;-78
2021/08/29 05:56:49;;;;;;;354.07;23.20;;;;;;;11.15;100.00;95596.59;4990353;28;20179;-81
2021/08/29 05:59:15;;;;;;;260.97;18.10;;;;;;;11.18;100.00;95600.66;5007631;28;20198;-80
2021/08/29 06:01:40;;;;;;;191.27;12.03;;;;;;;11.17;100.00;95601.63;4993296;28;20184;-80
2021/08/29 06:04:05;;;;;;;78.47;6.97;;;;;;;11.22;100.00;95597.63;4991938;28;20180;-80
2021/08/29 06:06:33;;;;;;;55.87;6.53;;;;;;;11.20;100.00;95596.13;4989041;28;20214;-80
2021/08/29 06:08:59;;;;;;;53.80;5.47;;;;;;;11.19;100.00;95594.50;4990764;28;20195;-80
2021/08/29 06:11:24;;;;;;;40.33;4.93;;;;;;;11.25;100.00;95593.91;4989657;28;20180;-82
2021/08/29 06:13:49;;;;;;;230.37;13.53;;;;;;;11.28;100.00;95598.78;5009360;28;20183;-79
2021/08/29 06:16:15;;;;;;;194.37;12.13;;;;;;;11.26;100.00;95587.72;4967661;28;20706;-75
2021/08/29 06:18:40;;;;;;;247.07;13.87;;;;;;;11.22;100.00;95586.38;4985139;28;20200;-75
2021/08/29 06:21:05;;;;;;;68.47;7.90;;;;;;;11.26;100.00;95585.94;4983659;28;20281;-77
2021/08/29 06:23:31;;;;;;;495.77;28.30;;;;;;;11.17;100.00;95591.22;5002145;28;20192;-76
2021/08/29 06:25:56;;;;;;;76.37;7.07;;;;;;;11.27;100.00;95590.19;4986207;28;20214;-77
2021/08/29 06:28:21;;;;;;;228.23;16.57;;;;;;;11.27;100.00;95589.38;5002006;28;20220;-76
2021/08/29 06:30:47;;;;;;;85.83;8.23;;;;;;;11.28;100.00;95589.22;4986424;28;20167;-77
2021/08/29 06:33:12;;;;;;;185.23;13.07;;;;;;;11.30;100.00;95583.84;5000845;28;20168;-76
2021/08/29 06:35:37;;;;;;;45.57;6.00;;;;;;;11.28;100.00;95588.38;4986239;28;20198;-77
2021/08/29 06:38:03;;;;;;;165.63;10.20;;;;;;;11.28;100.00;95588.38;5001895;28;20200;-76
2021/08/29 06:40:28;;;;;;;20.90;4.17;;;;;;;11.33;100.00;95591.38;5007157;28;20179;-77
2021/08/29 06:42:53;;;;;;;59.47;6.43;;;;;;;11.29;100.00;95592.63;5010265;28;20190;-77
2021/08/29 06:45:19;;;;;;;134.17;10.37;;;;;;;11.30;100.00;95591.66;5034334;28;20186;-77
2021/08/29 06:47:44;;;;;;;44.23;5.90;;;;;;;11.30;100.00;95583.84;5018210;28;20184;-78
2021/08/29 06:50:10;;;;;;;9.60;3.90;;;;;;;11.35;100.00;95585.03;5018870;28;20452;-77
2021/08/29 06:52:35;;;;;;;107.73;9.00;;;;;;;11.29;100.00;95592.63;5036054;28;20263;-77
2021/08/29 06:55:00;;;;;;;133.30;11.20;;;;;;;11.32;100.00;95590.56;5035814;28;20356;-77
2021/08/29 06:57:27;;;;;;;360.63;20.97;;;;;;;11.27;100.00;95589.38;5036672;28;20187;-76
2021/08/29 06:59:52;;;;;;;170.00;12.90;;;;;;;11.33;100.00;95591.38;5019317;28;20226;-78
2021/08/29 07:02:18;;;;;;;116.93;11.47;;;;;;;11.39;100.00;95585.53;5034636;28;20163;-77
2021/08/29 07:04:43;;;;;;;359.20;21.90;;;;;;;11.32;100.00;95593.16;5051810;28;20175;-77
2021/08/29 07:07:09;;;;;;;374.87;24.20;;;;;;;11.33;100.00;95588.78;5035228;28;20226;-76
2021/08/29 07:09:41;;;;;;;468.00;27.90;;;;;;;11.39;100.00;95589.94;5035869;28;20191;-75
2021/08/29 07:12:08;;;;;;;138.27;13.47;;;;;;;11.38;100.00;95588.28;5018744;28;20195;-76
2021/08/29 07:14:33;;;;;;;162.10;12.03;;;;;;;11.42;100.00;95587.03;5035493;28;20190;-76
2021/08/29 07:16:58;;;;;;;10.77;5.70;;;;;;;11.45;100.00;95584.13;5019298;28;20183;-77
2021/08/29 07:19:24;;;;;;;7.90;5.53;;;;;;;11.35;100.00;95597.22;5035538;28;20198;-77
2021/08/29 07:21:49;;;;;;;6.20;5.23;;;;;;;11.41;100.00;95596.63;5018407;28;20191;-78
2021/08/29 07:24:14;;;;;;;46.80;8.37;;;;;;;11.40;100.00;95602.81;5034820;28;20167;-79
2021/08/29 07:26:40;;;;;;;23.67;6.10;;;;;;;11.43;100.00;95591.28;5034231;28;20215;-76
2021/08/29 07:29:05;;;;;;;151.33;15.00;;;;;;;11.36;100.00;95596.25;5018020;28;20195;-76
2021/08/29 07:31:30;;;;;;;81.40;9.87;;;;;;;11.50;100.00;95606.13;5026281;28;20272;-76
2021/08/29 07:33:56;;;;;;;146.57;12.50;;;;;;;11.56;100.00;95592.50;5002117;28;20181;-76
2021/08/29 07:36:21;;;;;;;104.20;10.53;;;;;;;11.65;100.00;95601.16;5014838;28;20194;-78
2021/08/29 07:38:47;;;;;;;34.90;7.00;;;;;;;11.55;100.00;95596.06;5009931;28;20219;-78
2021/08/29 07:41:12;;;;;;;11.60;6.93;;;;;;;11.66;100.00;95604.59;4977869;28;20199;-76
2021/08/29 07:43:37;;;;;;;189.83;14.67;;;;;;;11.53;100.00;95595.41;4975367;28;20187;-78
2021/08/29 07:46:03;;;;;;;316.60;20.53;;;;;;;11.59;100.00;95596.59;4974472;28;20208;-75
2021/08/29 07:48:28;;;;;;;430.93;27.37;;;;;;;11.56;100.00;95608.09;4987703;28;20218;-77
2021/08/29 07:50:53;;;;;;;257.63;17.20;;;;;;;11.52;100.00;95596.38;4984744;28;20692;-78
2021/08/29 07:53:19;;;;;;;482.60;29.33;;;;;;;11.49;99.91;95609.69;5004156;28;20819;-79
2021/08/29 07:55:44;;;;;;;102.00;11.97;;;;;;;11.52;100.00;95611.16;4989152;28;20187;-77
2021/08/29 07:58:09;;;;;;;27.57;8.93;;;;;;;11.57;100.00;95608.91;4999937;28;20212;-79
2021/08/29 08:00:36;;;;;;;140.80;12.53;;;;;;;11.50;100.00;95613.94;5008688;28;20180;-78
2021/08/29 08:03:01;;;;;;;311.93;20.17;;;;;;;11.53;100.00;95605.00;4973699;28;20225;-76
2021/08/29 08:05:26;;;;;;;407.37;28.07;;;;;;;11.48;100.00;95607.22;4986135;28;20223;-77
2021/08/29 08:07:51;;;;;;;379.33;22.90;;;;;;;11.39;100.00;95616.75;4968874;28;20230;-79
2021/08/29 08:10:17;;;;;;;422.40;28.03;;;;;;;11.47;100.00;95616.81;4970212;28;20176;-78
2021/08/29 08:12:42;;;;;;;258.60;19.47;;;;;;;11.51;100.00;95619.94;4985226;28;20186;-77
2021/08/29 08:15:08;;;;;;;161.83;14.37;;;;;;;11.60;100.00;95606.84;4985666;28;20172;-79
2021/08/29 08:17:34;;;;;;;184.10;16.10;;;;;;;11.59;100.00;95618.22;5002387;28;20196;-77
2021/08/29 08:19:59;;;;;;;487.93;31.73;;;;;;;11.48;100.00;95618.44;4968757;28;20192;-78
2021/08/29 08:22:24;;;;;;;296.43;21.67;;;;;;;11.47;100.00;95613.38;4967554;28;20579;-76
2021/08/29 08:24:50;;;;;;;110.73;12.13;;;;;;;11.48;100.00;95621.03;4984578;28;20854;-79
2021/08/29 08:27:15;;;;;;;11.33;7.87;;;;;;;11.44;100.00;95621.50;4967660;28;20215;-78
2021/08/29 08:29:40;;;;;;;21.23;8.30;;;;;;;11.50;100.00;95629.53;4966612;28;20176;-79
2021/08/29 08:32:06;;;;;;;129.53;13.97;;;;;;;11.50;100.00;95624.31;4983647;28;20188;-78
2021/08/29 08:34:31;;;;;;;19.67;8.23;;;;;;;11.51;99.75;95619.94;4982688;28;20289;-78
2021/08/29 08:36:57;;;;;;;120.60;12.53;;;;;;;11.53;99.83;95623.19;4969208;28;20278;-77
2021/08/29 08:39:22;;;;;;;114.17;13.70;;;;;;;11.51;100.00;95630.34;4963169;28;20625;-77
2021/08/29 08:41:49;;;;;;;38.67;11.17;;;;;;;11.47;100.00;95627.22;4974773;28;20187;-77
2021/08/29 08:44:14;;;;;;;22.90;11.20;;;;;;;11.49;100.00;95624.47;4974773;28;20187;-77
2021/08/29 08:46:40;;;;;;;139.30;16.43;;;;;;;11.44;100.00;95627.53;4974802;28;20208;-77
2021/08/29 08:49:05;;;;;;;16.73;10.00;;;;;;;11.54;100.00;95630.84;4957988;28;20204;-78
2021/08/29 08:51:36;;;;;;;11.57;10.07;;;;;;;11.64;100.00;95628.97;4959338;28;20198;-81
2021/08/29 08:54:02;;;;;;;29.03;12.07;;;;;;;11.62;99.74;95623.09;4992064;28;20180;-78
2021/08/29 08:56:27;;;;;;;12.37;10.40;;;;;;;11.56;99.65;95622.88;4991772;28;20263;-80
2021/08/29 08:58:59;;;;;;;13.67;10.53;;;;;;;11.64;99.93;95617.75;4961395;28;20214;-77
2021/08/29 09:01:24;;;;;;;11.30;9.00;;;;;;;11.66;99.60;95623.63;4961774;28;20188;-83
2021/08/29 09:03:50;;;;;;;50.03;11.13;;;;;;;11.57;99.64;95620.16;4964592;28;20667;-81
2021/08/29 09:06:15;;;;;;;10.00;9.03;;;;;;;11.76;99.29;95618.34;4964823;28;20262;-81
2021/08/29 09:08:41;;;;;;;9.70;8.70;;;;;;;11.77;99.42;95630.38;4980187;28;20211;-80
2021/08/29 09:11:06;;;;;;;7.03;6.33;;;;;;;11.90;98.92;95631.59;4963642;28;20273;-79
2021/08/29 09:13:47;;;;;;;7.90;6.67;;;;;;;11.73;98.91;95622.03;4979457;28;20192;-78
2021/08/29 09:16:14;;;;;;;7.37;6.67;;;;;;;11.83;99.11;95624.56;4998574;28;20184;-78
2021/08/29 09:18:50;;;;;;;7.80;7.00;;;;;;;11.86;98.82;95621.66;4982349;28;20242;-80
2021/08/29 09:21:35;;;;;;;27.43;9.13;;;;;;;11.72;98.66;95627.41;5012982;28;20197;-80
2021/08/29 09:24:07;;;;;;;9.53;8.60;;;;;;;11.76;99.20;95628.75;5020504;28;20189;-80
2021/08/29 09:26:32;;;;;;;10.07;8.40;;;;;;;11.76;99.36;95634.75;5003966;28;20222;-78
2021/08/29 09:28:59;;;;;;;10.13;9.13;;;;;;;11.76;99.14;95636.53;5005239;28;20218;-80
2021/08/29 09:31:41;;;;;;;10.17;9.17;;;;;;;11.75;99.13;95632.28;5023714;28;20231;-82
2021/08/29 09:34:07;;;;;;;19.07;10.57;;;;;;;11.85;99.56;95635.66;5003506;28;20186;-79
2021/08/29 09:36:33;;;;;;;11.07;9.97;;;;;;;11.89;98.80;95632.56;5004197;28;20269;-78
2021/08/29 09:39:16;;;;;;;12.90;10.47;;;;;;;11.89;98.80;95640.38;5003910;28;20224;-80
2021/08/29 09:41:42;;;;;;;11.80;10.63;;;;;;;11.91;98.93;95642.81;5017640;28;20174;-80
2021/08/29 09:44:21;;;;;;;10.93;9.43;;;;;;;11.96;98.44;95645.81;5002368;28;20589;-80
2021/08/29 09:47:00;;;;;;;47.27;11.00;;;;;;;11.91;98.13;95633.22;5019085;28;20194;-80
2021/08/29 09:49:28;;;;;;;26.57;11.20;;;;;;;11.80;98.67;95630.09;5018513;28;20194;-80
2021/08/29 09:51:54;;;;;;;13.93;9.50;;;;;;;11.98;98.53;95633.44;5017849;28;20546;-81
2021/08/29 09:54:49;;;;;;;37.20;11.17;;;;;;;11.93;98.61;95633.09;5001643;28;20233;-81
2021/08/29 09:57:14;;;;;;;10.53;9.53;;;;;;;11.88;99.00;95628.34;4920512;29;20289;-80
2021/08/29 09:59:41;;;;;;;11.23;9.87;;;;;;;11.82;98.87;95622.94;4937958;29;20291;-81
2021/08/29 10:02:07;;;;;;;11.97;10.17;;;;;;;11.84;98.71;95626.22;4904364;29;20194;-80
2021/08/29 10:04:32;;;;;;;10.03;8.83;;;;;;;11.86;98.49;95632.09;4905737;29;20189;-82
2021/08/29 10:07:30;;;;;;;10.23;9.13;;;;;;;11.90;98.34;95628.19;4891317;29;20585;-81
2021/08/29 10:09:55;;;;;;;9.47;8.13;;;;;;;11.91;98.36;95630.63;4879036;29;20264;-80
2021/08/29 10:12:21;;;;;;;10.03;8.83;;;;;;;11.96;97.92;95638.00;4879016;29;20689;-80
2021/08/29 10:14:47;;;;;;;8.97;8.07;;;;;;;12.02;97.86;95636.56;4881096;29;20236;-81
2021/08/29 10:17:12;;;;;;;9.93;8.30;;;;;;;12.06;97.61;95623.09;4868262;29;20287;-79
2021/08/29 10:19:38;;;;;;;9.07;8.17;;;;;;;12.07;97.98;95637.72;4865584;29;20211;-81
2021/08/29 10:22:04;;;;;;;8.73;7.80;;;;;;;12.12;97.83;95632.06;4863178;29;20192;-80
2021/08/29 10:24:32;;;;;;;10.93;8.67;;;;;;;12.10;97.94;95627.03;4877890;29;20530;-81
2021/08/29 10:27:12;;;;;;;7.90;7.20;;;;;;;12.15;97.64;95626.53;4862506;29;20294;-81
2021/08/29 10:29:49;;;;;;;9.67;8.10;;;;;;;12.14;97.54;95633.53;4862448;29;20279;-81
2021/08/29 10:32:29;;;;;;;10.50;8.30;;;;;;;12.24;97.31;95624.78;4862402;29;20215;-81
2021/08/29 10:34:54;;;;;;;8.83;8.03;;;;;;;12.30;96.63;95621.56;4982175;28;20235;-80
2021/08/29 10:37:20;;;;;;;8.30;7.50;;;;;;;12.09;96.80;95620.16;4957242;28;20208;-81
2021/08/29 10:39:45;;;;;;;7.50;6.80;;;;;;;12.26;97.20;95621.06;4940686;28;20672;-80
2021/08/29 10:42:11;;;;;;;9.30;7.50;;;;;;;12.17;96.97;95622.81;4957408;28;20716;-80
2021/08/29 10:44:36;;;;;;;10.43;8.77;;;;;;;12.19;97.57;95625.25;4943907;28;20611;-81
2021/08/29 10:47:02;;;;;;;10.97;8.43;;;;;;;12.17;97.09;95628.00;4978024;28;20230;-80
2021/08/29 10:49:28;;;;;;;10.00;9.00;;;;;;;12.12;97.35;95622.47;4995129;28;20196;-81
2021/08/29 10:51:55;;;;;;;10.20;9.13;;;;;;;12.12;97.63;95619.88;4961720;28;20202;-82
2021/08/29 10:54:20;;;;;;;9.37;8.47;;;;;;;12.15;97.59;95629.16;4978150;28;20712;-81
2021/08/29 10:56:46;;;;;;;10.13;8.47;;;;;;;12.21;97.13;95622.50;4961231;28;20214;-80
2021/08/29 10:59:12;;;;;;;12.43;8.60;;;;;;;12.09;97.59;95624.53;4988171;28;20195;-84
2021/08/29 11:01:45;;;;;;;7.77;6.97;;;;;;;12.04;97.57;95625.03;4997739;28;20190;-80
2021/08/29 11:04:22;;;;;;;11.20;8.07;;;;;;;12.06;97.74;95623.09;5024411;28;20171;-81
2021/08/29 11:06:47;;;;;;;8.93;7.70;;;;;;;12.21;97.30;95630.31;5015672;28;20226;-78
2021/08/29 11:09:31;;;;;;;8.47;7.60;;;;;;;12.22;97.50;95624.13;4994272;28;20258;-79
2021/08/29 11:11:56;;;;;;;8.83;7.93;;;;;;;12.34;97.29;95626.31;4977680;28;20183;-79
2021/08/29 11:14:41;;;;;;;8.57;7.67;;;;;;;12.40;96.91;95622.25;4998345;28;20334;-80
2021/08/29 11:17:23;;;;;;;10.07;8.43;;;;;;;12.37;97.13;95633.00;4979020;28;20168;-80
2021/08/29 11:19:50;;;;;;;9.90;8.63;;;;;;;12.30;97.11;95624.19;4994569;28;20234;-78
2021/08/29 11:22:18;;;;;;;8.13;7.33;;;;;;;12.29;97.41;95625.97;4994741;28;20172;-80